Observations for Trim Patrick St
| Time | AQI | Temp °C | Hum % | Pres Pa | CO μg/m³ | H₂S μg/m³ | NO μg/m³ | NO₂ μg/m³ | O₃ μg/m³ | SO₂ μg/m³ | PM1 μg/m³ | PM2.5 μg/m³ | PM10 μg/m³ |
|---|---|---|---|---|---|---|---|---|---|---|---|---|---|
| Wednesday 26 August 2026 | |||||||||||||
| 23:51 | 3 | 16.2 | 85 | 38,460 | 0.18 | 7.45 | 1.04 | 31.7 | 27.2 | 0 | 23.43 | 35.23 | 37.04 |
| 23:50 | 3 | 16.2 | 85 | 38,460 | 0.17 | 5.15 | 1.11 | 25.55 | 32.46 | 0 | 20 | 32.49 | 33.14 |
| 23:49 | 3 | 16.2 | 85 | 38,460 | 0.18 | 4.97 | 1.23 | 23.64 | 34.36 | 0 | 21.72 | 31.8 | 32.48 |
| 23:48 | 3 | 16.2 | 85 | 38,460 | 0.17 | 6.82 | 1.23 | 27.46 | 33.09 | 0 | 24.29 | 34.56 | 37.73 |
| 23:47 | 3 | 16.2 | 85 | 38,460 | 0.17 | 6.25 | 1.24 | 23.41 | 36.26 | 0 | 23.43 | 35.25 | 38.39 |
| 23:46 | 3 | 16.2 | 85 | 38,460 | 0.17 | 8.08 | 1.42 | 24.79 | 31.19 | 0 | 24.29 | 35.26 | 39.74 |
| 23:45 | 3 | 16.2 | 85 | 38,460 | 0.17 | 11.37 | 1.5 | 41.52 | 37.89 | 0 | 23.43 | 34.59 | 37.16 |
| 23:44 | 3 | 16.2 | 85 | 38,460 | 0.17 | 9.49 | 1.33 | 34.8 | 30.84 | 0 | 24.29 | 35.99 | 39.17 |
| 23:43 | 3 | 16.1 | 84 | 38,460 | 0.18 | 6.93 | 1.29 | 29.07 | 28.75 | 0 | 24.29 | 33.93 | 36.57 |
| 23:42 | 3 | 16.1 | 84 | 38,460 | 0.17 | 5.94 | 1.26 | 27.56 | 31.49 | 0 | 24.29 | 35.34 | 38.63 |
| 23:41 | 3 | 16.1 | 84 | 38,460 | 0.18 | 5.73 | 1.33 | 25.41 | 32.78 | 0 | 24.29 | 36.05 | 39.34 |
| 23:40 | 3 | 16.2 | 84 | 38,460 | 0.16 | 5.73 | 1.21 | 25.09 | 34.8 | 0 | 25.14 | 34.67 | 37.35 |
| 23:39 | 3 | 16.1 | 84 | 38,460 | 0.17 | 5.57 | 1.41 | 24.65 | 33.7 | 0 | 23.43 | 33.99 | 35.4 |
| 23:38 | 3 | 16.2 | 84 | 38,460 | 0.16 | 5.89 | 1.42 | 24.58 | 34.91 | 0 | 22.57 | 32.61 | 35.4 |
| 23:35 | 3 | 16.1 | 84 | 38,460 | 0.17 | 8.18 | 1.54 | 25.31 | 38.12 | 0 | 24.29 | 34.02 | 34.81 |
| 23:34 | 3 | 16.2 | 84 | 38,460 | 0.16 | 8.29 | 1.49 | 33.74 | 25.13 | 0 | 26 | 36.77 | 38.76 |
| 23:33 | 3 | 16.2 | 84 | 38,460 | 0.16 | 7.01 | 1.45 | 29.01 | 30.68 | 0 | 24.29 | 33.35 | 36.84 |
| 23:31 | 3 | 16.2 | 84 | 38,460 | 0.15 | 5.34 | 1.64 | 23.17 | 37.26 | 0 | 24.29 | 34.08 | 36.96 |
| 23:30 | 3 | 16.2 | 84 | 38,460 | 0.15 | 6.38 | 1.66 | 23.97 | 36.1 | 0 | 21.72 | 32.67 | 34.89 |
| 23:29 | 3 | 16.2 | 84 | 38,460 | 0.15 | 7.43 | 1.45 | 28.68 | 29.9 | 0 | 25.14 | 35.47 | 38.29 |